createdAt,value
2023-01-23T00:00:18.043Z,66.00
2023-01-23T00:02:45.591Z,66.55
2023-01-23T00:05:13.049Z,58.83
2023-01-23T00:07:42.011Z,67.70
2023-01-23T00:10:10.140Z,62.00
2023-01-23T00:12:37.449Z,60.45
2023-01-23T00:15:06.714Z,61.97
2023-01-23T00:17:34.329Z,58.83
2023-01-23T00:20:01.955Z,54.97
2023-01-23T00:22:29.959Z,56.90
2023-01-23T00:24:58.690Z,60.00
2023-01-23T00:27:26.085Z,58.13
2023-01-23T00:29:53.500Z,55.33
2023-01-23T00:32:20.807Z,52.78
2023-01-23T00:34:48.372Z,51.92
2023-01-23T00:37:16.411Z,51.90
2023-01-23T00:39:45.340Z,57.58
2023-01-23T00:42:14.249Z,46.78
2023-01-23T00:44:42.316Z,51.25
2023-01-23T00:47:09.882Z,45.53
2023-01-23T00:49:37.237Z,49.17
2023-01-23T00:52:07.306Z,43.85
2023-01-23T00:54:34.643Z,45.13
2023-01-23T00:57:01.982Z,44.45
2023-01-23T00:59:33.474Z,39.83
2023-01-23T01:02:00.931Z,40.72
2023-01-23T01:04:28.260Z,41.97
2023-01-23T01:06:55.559Z,41.50
2023-01-23T01:09:23.093Z,38.30
2023-01-23T01:11:50.427Z,34.47
2023-01-23T01:14:17.798Z,36.47
2023-01-23T01:16:46.607Z,37.55
2023-01-23T01:19:14.377Z,38.20
2023-01-23T01:21:42.174Z,35.20
2023-01-23T01:24:09.925Z,34.28
2023-01-23T01:26:37.458Z,40.03
2023-01-23T01:29:04.955Z,35.08
2023-01-23T01:31:32.578Z,38.85
2023-01-23T01:34:01.436Z,37.78
2023-01-23T01:36:29.096Z,35.40
2023-01-23T01:38:57.105Z,34.92
2023-01-23T01:41:24.686Z,33.08
2023-01-23T01:43:53.252Z,35.88
2023-01-23T01:46:22.701Z,38.22
2023-01-23T01:48:57.452Z,34.90
2023-01-23T01:51:28.785Z,37.72
2023-01-23T01:53:58.779Z,33.20
2023-01-23T01:56:26.590Z,37.72
2023-01-23T01:58:54.348Z,35.28
2023-01-23T02:01:21.757Z,35.55
2023-01-23T02:03:50.579Z,36.28
2023-01-23T02:06:18.274Z,38.65
2023-01-23T02:08:49.151Z,39.30
2023-01-23T02:11:18.436Z,38.70
2023-01-23T02:13:46.005Z,37.78
2023-01-23T02:16:14.124Z,34.53
2023-01-23T02:18:44.494Z,36.30
2023-01-23T02:21:12.336Z,37.35
2023-01-23T02:23:54.252Z,38.78
2023-01-23T02:26:24.617Z,35.95
2023-01-23T02:28:53.380Z,39.75
2023-01-23T02:31:20.796Z,38.80
2023-01-23T02:33:50.022Z,34.35
2023-01-23T02:36:18.082Z,38.47
2023-01-23T02:38:50.894Z,39.47
2023-01-23T02:41:19.454Z,38.50
2023-01-23T02:43:49.222Z,36.95
2023-01-23T02:46:18.883Z,36.55
2023-01-23T02:48:47.560Z,37.55
2023-01-23T02:51:16.915Z,35.80
2023-01-23T02:53:45.091Z,35.08
2023-01-23T02:56:12.478Z,39.20
2023-01-23T02:58:57.369Z,30.83
2023-01-23T03:01:27.288Z,34.22
2023-01-23T03:03:56.659Z,33.30
2023-01-23T03:06:24.383Z,33.28
2023-01-23T03:08:51.756Z,34.42
2023-01-23T03:11:19.618Z,32.65
2023-01-23T03:13:47.743Z,37.70
2023-01-23T03:16:15.432Z,34.45
2023-01-23T03:18:53.843Z,37.40
2023-01-23T03:21:22.101Z,37.38
2023-01-23T03:23:49.398Z,41.08
2023-01-23T03:26:17.922Z,38.75
2023-01-23T03:29:02.918Z,39.15
2023-01-23T03:33:58.769Z,39.53
2023-01-23T03:36:26.071Z,40.30
2023-01-23T03:39:11.118Z,36.30
2023-01-23T03:44:09.237Z,40.20
2023-01-23T03:46:36.645Z,42.72
2023-01-23T03:49:05.555Z,36.05
2023-01-23T03:51:33.132Z,42.08
2023-01-23T03:54:00.409Z,35.88
2023-01-23T03:56:27.958Z,40.55
2023-01-23T03:58:57.409Z,36.53
2023-01-23T04:01:25.442Z,38.85
2023-01-23T04:03:52.742Z,35.63
2023-01-23T04:06:21.401Z,41.83
2023-01-23T04:08:48.846Z,38.72
2023-01-23T04:11:16.278Z,41.88
2023-01-23T04:13:43.810Z,41.33
2023-01-23T04:16:15.059Z,42.13
2023-01-23T04:18:42.564Z,41.35
2023-01-23T04:21:09.973Z,41.35
2023-01-23T04:23:38.667Z,37.78
2023-01-23T04:26:05.975Z,43.85
2023-01-23T04:28:33.397Z,43.63
2023-01-23T04:31:01.748Z,43.85
2023-01-23T04:33:29.392Z,46.05
2023-01-23T04:35:57.536Z,50.22
2023-01-23T04:38:25.252Z,49.20
2023-01-23T04:40:54.336Z,41.67
2023-01-23T04:43:22.038Z,47.67
2023-01-23T04:45:51.391Z,43.72
2023-01-23T04:48:18.769Z,39.80
2023-01-23T04:50:46.066Z,42.55
2023-01-23T04:53:13.965Z,40.00
2023-01-23T04:55:41.294Z,38.65
2023-01-23T04:58:11.537Z,39.95
2023-01-23T05:00:38.857Z,41.05
2023-01-23T05:03:06.313Z,38.17
2023-01-23T05:05:33.742Z,38.67
2023-01-23T05:08:01.133Z,38.20
2023-01-23T05:10:28.470Z,37.45
2023-01-23T05:12:55.809Z,39.58
2023-01-23T05:15:24.478Z,37.95
2023-01-23T05:17:51.791Z,38.88
2023-01-23T05:20:20.422Z,35.83
2023-01-23T05:22:53.272Z,35.78
2023-01-23T05:25:21.737Z,36.78
2023-01-23T05:27:49.369Z,32.47
2023-01-23T05:30:17.198Z,35.92
2023-01-23T05:32:45.955Z,39.42
2023-01-23T05:35:13.244Z,37.15
2023-01-23T05:37:40.539Z,31.77
2023-01-23T05:40:09.357Z,35.03
2023-01-23T05:42:36.878Z,37.80
2023-01-23T05:45:04.356Z,38.10
2023-01-23T05:47:31.642Z,37.75
2023-01-23T05:50:00.970Z,41.38
2023-01-23T05:52:28.344Z,38.30
2023-01-23T05:54:55.737Z,36.97
2023-01-23T05:57:23.153Z,36.55
2023-01-23T05:59:50.424Z,38.75
2023-01-23T06:02:18.003Z,39.60
2023-01-23T06:04:47.557Z,39.85
2023-01-23T06:07:17.134Z,41.58
2023-01-23T06:09:44.526Z,43.58
2023-01-23T06:12:12.353Z,43.20
2023-01-23T06:14:39.947Z,42.05
2023-01-23T06:17:07.418Z,42.17
2023-01-23T06:19:35.031Z,46.38
2023-01-23T06:22:02.408Z,43.20
2023-01-23T06:24:31.324Z,44.78
2023-01-23T06:26:58.776Z,44.35
2023-01-23T06:29:26.037Z,42.78
2023-01-23T06:31:53.365Z,40.92
2023-01-23T06:34:20.684Z,41.75
2023-01-23T06:36:48.025Z,45.20
2023-01-23T06:39:15.802Z,41.95
2023-01-23T06:41:44.521Z,43.60
2023-01-23T06:44:12.968Z,43.17
2023-01-23T06:46:41.939Z,46.20
2023-01-23T06:49:11.675Z,45.17
2023-01-23T06:51:39.037Z,47.58
2023-01-23T06:54:06.442Z,42.60
2023-01-23T06:56:34.455Z,46.58
2023-01-23T06:59:03.140Z,49.72
2023-01-23T07:01:31.090Z,46.67
2023-01-23T07:03:58.400Z,46.78
2023-01-23T07:06:25.711Z,49.28
2023-01-23T07:08:53.074Z,41.88
2023-01-23T07:11:20.457Z,43.78
2023-01-23T07:13:47.761Z,45.28
2023-01-23T07:16:18.825Z,40.90
2023-01-23T07:18:46.170Z,42.55
2023-01-23T07:21:13.524Z,40.45
2023-01-23T07:23:40.834Z,40.38
2023-01-23T07:26:09.504Z,39.85
2023-01-23T07:28:37.227Z,41.53
2023-01-23T07:31:05.111Z,42.75
2023-01-23T07:33:34.698Z,39.35
2023-01-23T07:36:02.252Z,37.50
2023-01-23T07:38:29.506Z,39.05
2023-01-23T07:40:58.677Z,37.42
2023-01-23T07:43:26.439Z,37.05
2023-01-23T07:45:53.803Z,37.90
2023-01-23T07:48:21.133Z,35.55
2023-01-23T07:50:50.198Z,34.47
2023-01-23T07:53:17.638Z,37.97
2023-01-23T07:55:45.317Z,38.50
2023-01-23T07:58:12.867Z,33.10
2023-01-23T08:00:41.679Z,35.10
2023-01-23T08:03:09.036Z,34.35
2023-01-23T08:05:36.385Z,35.30
2023-01-23T08:08:13.116Z,33.40
2023-01-23T08:10:41.263Z,36.72
2023-01-23T08:13:08.760Z,34.53
2023-01-23T08:15:37.563Z,36.67
2023-01-23T08:18:05.692Z,36.17
2023-01-23T08:20:33.707Z,32.47
2023-01-23T08:23:02.053Z,32.00
2023-01-23T08:25:30.847Z,32.42
2023-01-23T08:27:58.458Z,34.83
2023-01-23T08:30:25.801Z,31.55
2023-01-23T08:32:53.280Z,31.77
2023-01-23T08:35:20.562Z,31.02
2023-01-23T08:37:47.936Z,30.13
2023-01-23T08:40:15.626Z,33.83
2023-01-23T08:42:44.265Z,32.78
2023-01-23T08:45:11.979Z,32.38
2023-01-23T08:47:39.294Z,34.75
2023-01-23T08:50:07.313Z,33.22
2023-01-23T08:52:35.234Z,33.75
2023-01-23T08:55:02.813Z,32.50
2023-01-23T08:57:30.249Z,29.70
2023-01-23T08:59:58.971Z,29.00
2023-01-23T09:02:26.323Z,28.52
2023-01-23T09:04:53.660Z,27.02
2023-01-23T09:07:20.984Z,31.63
2023-01-23T09:09:48.567Z,29.05
2023-01-23T09:12:16.129Z,32.72
2023-01-23T09:14:45.140Z,30.55
2023-01-23T09:17:13.819Z,29.90
2023-01-23T09:19:41.154Z,31.27
2023-01-23T09:22:08.454Z,33.60
2023-01-23T09:24:36.055Z,33.17
2023-01-23T09:27:03.374Z,31.73
2023-01-23T09:29:30.830Z,30.95
2023-01-23T09:31:58.920Z,30.70
2023-01-23T09:34:27.896Z,33.95
2023-01-23T09:36:55.250Z,30.70
2023-01-23T09:39:22.885Z,28.35
2023-01-23T09:41:50.607Z,30.40
2023-01-23T09:44:20.872Z,28.13
2023-01-23T09:46:50.481Z,31.50
2023-01-23T09:49:20.690Z,31.95
2023-01-23T09:51:52.560Z,30.42
2023-01-23T09:54:27.824Z,30.98
2023-01-23T09:56:55.848Z,28.17
2023-01-23T09:59:28.754Z,31.30
2023-01-23T10:01:56.164Z,32.92
2023-01-23T10:04:24.166Z,33.30
2023-01-23T10:07:09.260Z,37.30
2023-01-23T10:12:10.833Z,31.98
2023-01-23T10:15:02.465Z,35.95
2023-01-23T10:17:35.284Z,31.15
2023-01-23T10:20:14.842Z,31.98
2023-01-23T10:22:47.123Z,31.88
2023-01-23T10:25:18.574Z,35.53
2023-01-23T10:27:48.928Z,37.63
2023-01-23T10:30:21.852Z,34.92
2023-01-23T10:32:51.706Z,34.83
2023-01-23T10:35:20.945Z,31.67
2023-01-23T10:37:51.712Z,33.55
2023-01-23T10:40:40.923Z,34.50
2023-01-23T10:43:13.700Z,30.27
2023-01-23T10:45:41.659Z,31.10
2023-01-23T10:48:23.857Z,30.70
2023-01-23T10:50:51.497Z,32.08
2023-01-23T10:53:20.584Z,29.60
2023-01-23T10:55:49.152Z,29.70
2023-01-23T10:58:28.684Z,34.42
2023-01-23T11:00:56.042Z,31.35
2023-01-23T11:03:31.359Z,34.67
2023-01-23T11:06:02.315Z,30.25
2023-01-23T11:08:31.258Z,26.42
2023-01-23T11:11:18.409Z,28.38
2023-01-23T11:13:48.224Z,26.50
2023-01-23T11:16:16.209Z,26.80
2023-01-23T11:18:44.704Z,25.63
2023-01-23T11:21:21.312Z,26.70
2023-01-23T11:23:48.598Z,24.10
2023-01-23T11:26:30.822Z,24.67
2023-01-23T11:28:59.498Z,23.05
2023-01-23T11:31:27.748Z,24.83
2023-01-23T11:33:58.101Z,22.58
2023-01-23T11:36:32.697Z,23.17
2023-01-23T11:39:02.848Z,27.98
2023-01-23T11:41:33.993Z,27.15
2023-01-23T11:44:07.315Z,24.75
2023-01-23T11:46:45.341Z,22.70
2023-01-23T11:49:23.603Z,21.58
2023-01-23T11:51:54.598Z,22.80
2023-01-23T11:54:31.892Z,18.67
2023-01-23T11:57:03.201Z,19.40
2023-01-23T11:59:43.665Z,16.88
2023-01-23T12:02:20.815Z,17.73
2023-01-23T12:05:00.788Z,18.05
2023-01-23T12:07:28.532Z,16.42
2023-01-23T12:10:03.525Z,15.35
2023-01-23T12:12:40.184Z,14.57
2023-01-23T12:15:16.062Z,15.20
2023-01-23T12:17:49.660Z,14.10
2023-01-23T12:20:23.969Z,13.25
2023-01-23T12:22:57.460Z,14.90
2023-01-23T12:25:31.122Z,14.43
2023-01-23T12:28:01.773Z,14.00
2023-01-23T12:30:45.175Z,14.27
2023-01-23T12:33:21.177Z,13.93
2023-01-23T12:35:51.955Z,13.52
2023-01-23T12:38:24.915Z,13.63
2023-01-23T12:40:54.210Z,12.57
2023-01-23T12:43:31.737Z,13.57
2023-01-23T12:46:05.661Z,12.73
2023-01-23T12:48:36.074Z,12.88
2023-01-23T12:51:08.608Z,15.20
2023-01-23T12:53:38.266Z,12.02
2023-01-23T12:56:08.653Z,12.57
2023-01-23T12:58:37.028Z,12.15
2023-01-23T13:01:13.932Z,13.40
2023-01-23T13:03:52.630Z,13.27
2023-01-23T13:06:30.661Z,14.25
2023-01-23T13:09:16.722Z,14.48
2023-01-23T13:11:48.077Z,12.38
2023-01-23T13:14:30.290Z,11.50
2023-01-23T13:17:02.792Z,12.07
2023-01-23T13:20:00.135Z,12.48
2023-01-23T13:22:32.156Z,13.25
2023-01-23T13:25:12.509Z,12.57
2023-01-23T13:27:41.234Z,15.95
2023-01-23T13:30:31.724Z,15.90
2023-01-23T13:33:03.775Z,17.20
2023-01-23T13:35:52.828Z,16.63
2023-01-23T13:38:32.079Z,15.30
2023-01-23T13:41:19.189Z,12.75
2023-01-23T13:43:52.935Z,12.43
2023-01-23T13:46:26.987Z,11.63
2023-01-23T14:21:07.133Z,12.73
2023-01-23T14:23:41.593Z,14.23
2023-01-23T14:26:09.992Z,15.55
2023-01-23T14:28:37.460Z,16.38
2023-01-23T14:31:06.149Z,16.58
2023-01-23T14:33:40.824Z,18.20
2023-01-23T14:36:14.353Z,18.75
2023-01-23T14:38:44.267Z,18.05
2023-01-23T14:41:11.936Z,16.55
2023-01-23T14:43:41.111Z,17.50
2023-01-23T14:46:13.322Z,18.73
2023-01-23T14:48:43.658Z,17.70
2023-01-23T14:51:18.797Z,17.70
2023-01-23T14:53:54.211Z,15.60
2023-01-23T14:56:24.884Z,17.73
2023-01-23T14:58:52.937Z,20.20
2023-01-23T15:01:21.014Z,16.77
2023-01-23T15:03:56.182Z,16.95
2023-01-23T15:06:24.615Z,15.88
2023-01-23T15:08:53.310Z,16.35
2023-01-23T15:11:26.082Z,14.38
2023-01-23T15:13:55.168Z,15.90
2023-01-23T15:16:23.544Z,15.70
2023-01-23T15:18:59.501Z,15.38
2023-01-23T15:21:29.062Z,16.33
2023-01-23T15:24:04.282Z,16.90
2023-01-23T15:26:34.024Z,17.15
2023-01-23T15:29:03.632Z,21.73
2023-01-23T15:31:34.778Z,19.15
2023-01-23T15:34:17.826Z,20.15
2023-01-23T15:36:47.159Z,19.25
2023-01-23T15:39:19.579Z,19.05
2023-01-23T15:41:48.694Z,19.08
2023-01-23T15:44:16.825Z,17.83
2023-01-23T15:46:44.184Z,20.60
2023-01-23T15:49:24.495Z,19.55
2023-01-23T15:51:53.224Z,21.10
2023-01-23T15:54:25.182Z,22.83
2023-01-23T15:57:06.524Z,23.10
2023-01-23T15:59:35.095Z,21.88
2023-01-23T16:02:04.480Z,21.73
2023-01-23T16:04:31.803Z,20.20
2023-01-23T16:07:00.907Z,21.90
2023-01-23T16:09:31.406Z,24.00
2023-01-23T16:11:59.864Z,23.63
2023-01-23T16:14:27.476Z,24.88
2023-01-23T16:16:58.299Z,21.08
2023-01-23T16:19:32.656Z,21.08
2023-01-23T16:22:05.416Z,23.20
2023-01-23T16:24:37.440Z,21.63
2023-01-23T16:27:05.389Z,24.88
2023-01-23T16:29:35.873Z,23.20
2023-01-23T16:32:03.820Z,25.42
2023-01-23T16:34:31.918Z,21.92
2023-01-23T16:37:00.694Z,23.40
2023-01-23T16:39:28.419Z,23.92
2023-01-23T16:41:57.131Z,25.00
2023-01-23T16:44:24.723Z,25.23
2023-01-23T16:46:53.109Z,25.80
2023-01-23T16:49:21.242Z,22.77
2023-01-23T16:51:52.558Z,23.77
2023-01-23T16:54:21.061Z,24.13
2023-01-23T16:56:50.794Z,22.95
2023-01-23T16:59:20.617Z,24.50
2023-01-23T17:01:50.613Z,27.83
2023-01-23T17:04:20.486Z,23.63
2023-01-23T17:06:48.021Z,25.00
2023-01-23T17:09:15.754Z,27.08
2023-01-23T17:11:43.962Z,28.15
2023-01-23T17:14:15.872Z,25.63
2023-01-23T17:16:45.169Z,26.73
2023-01-23T17:19:17.838Z,26.10
2023-01-23T17:21:45.412Z,25.38
2023-01-23T17:24:14.659Z,25.77
2023-01-23T17:26:42.045Z,23.02
2023-01-23T17:29:09.480Z,23.02
2023-01-23T17:31:38.443Z,22.95
2023-01-23T17:34:07.538Z,25.15
2023-01-23T17:36:35.130Z,26.27
2023-01-23T17:39:04.525Z,25.77
2023-01-23T17:41:33.038Z,24.20
2023-01-23T17:44:00.736Z,24.05
2023-01-23T17:46:29.294Z,26.73
2023-01-23T17:48:57.202Z,27.45
2023-01-23T17:51:26.665Z,26.38
2023-01-23T17:53:54.947Z,26.98
2023-01-23T17:56:22.318Z,25.70
2023-01-23T17:58:49.685Z,22.58
2023-01-23T18:01:19.374Z,18.75
2023-01-23T18:03:49.546Z,20.67
2023-01-23T18:06:16.931Z,21.80
2023-01-23T18:08:45.760Z,19.77
2023-01-23T18:11:17.715Z,18.50
2023-01-23T18:13:49.733Z,17.80
2023-01-23T18:16:21.204Z,20.27
2023-01-23T18:18:52.844Z,20.25
2023-01-23T18:21:21.259Z,22.55
2023-01-23T18:23:50.838Z,18.80
2023-01-23T18:26:25.617Z,18.02
2023-01-23T18:29:08.044Z,20.00
2023-01-23T18:31:40.759Z,18.90
2023-01-23T18:34:12.973Z,24.30
2023-01-23T18:36:47.576Z,23.98
2023-01-23T18:39:39.777Z,22.90
2023-01-23T18:42:15.169Z,18.70
2023-01-23T18:44:43.500Z,22.23
2023-01-23T18:47:12.332Z,22.95
2023-01-23T18:49:40.936Z,23.73
2023-01-23T18:52:09.983Z,23.20
2023-01-23T18:54:39.786Z,21.52
2023-01-23T18:57:14.993Z,22.42
2023-01-23T18:59:49.194Z,21.90
2023-01-23T19:02:23.483Z,21.85
2023-01-23T19:04:55.699Z,24.45
2023-01-23T19:07:23.344Z,23.05
2023-01-23T19:09:50.901Z,23.23
2023-01-23T19:12:25.770Z,22.88
2023-01-23T19:15:11.009Z,22.20
2023-01-23T19:20:17.045Z,32.53
2023-01-23T19:22:52.164Z,30.95
2023-01-23T19:25:20.209Z,29.33
2023-01-23T19:27:52.201Z,18.90
2023-01-23T19:30:20.802Z,17.48
2023-01-23T19:32:48.401Z,19.92
2023-01-23T19:35:17.128Z,18.48
2023-01-23T19:37:45.224Z,19.65
2023-01-23T19:40:14.023Z,20.48
2023-01-23T19:42:51.105Z,22.00
2023-01-23T19:45:21.218Z,20.45
2023-01-23T19:47:49.292Z,24.25
2023-01-23T19:50:18.813Z,22.20
2023-01-23T19:56:39.874Z,22.45
2023-01-23T19:59:08.129Z,23.48
2023-01-23T20:01:36.969Z,21.77
2023-01-23T20:04:04.589Z,22.30
2023-01-23T20:06:38.699Z,23.67
2023-01-23T20:09:06.024Z,23.25
2023-01-23T20:11:33.385Z,22.40
2023-01-23T20:14:00.949Z,20.35
2023-01-23T20:16:28.427Z,20.08
2023-01-23T20:18:56.021Z,21.98
2023-01-23T20:21:24.606Z,21.10
2023-01-23T20:23:53.571Z,20.92
2023-01-23T20:26:21.525Z,21.55
2023-01-23T20:28:49.540Z,21.33
2023-01-23T20:31:17.254Z,23.35
2023-01-23T20:33:44.961Z,22.38
2023-01-23T20:36:13.293Z,22.52
2023-01-23T20:38:40.973Z,19.98
2023-01-23T20:41:11.592Z,18.95
2023-01-23T20:43:39.476Z,19.20
2023-01-23T20:46:07.629Z,20.83
2023-01-23T20:48:35.257Z,19.02
2023-01-23T20:51:02.831Z,20.38
2023-01-23T20:53:32.030Z,20.00
2023-01-23T20:56:00.324Z,22.98
2023-01-23T20:58:46.403Z,18.85
2023-01-23T21:01:14.507Z,20.40
2023-01-23T21:03:41.966Z,23.33
2023-01-23T21:06:09.705Z,22.38
2023-01-23T21:08:37.376Z,20.92
2023-01-23T21:11:05.286Z,18.45
2023-01-23T21:13:33.966Z,18.50
2023-01-23T21:16:02.317Z,20.67
2023-01-23T21:18:29.718Z,17.63
2023-01-23T21:21:02.553Z,22.90
2023-01-23T21:23:29.896Z,20.65
2023-01-23T21:25:58.283Z,23.50
2023-01-23T21:28:25.649Z,26.50
2023-01-23T21:30:54.318Z,41.95
2023-01-23T21:33:24.087Z,38.45
2023-01-23T21:35:51.851Z,18.27
2023-01-23T21:38:19.650Z,24.88
2023-01-23T21:40:47.069Z,20.92
2023-01-23T21:43:14.545Z,21.95
2023-01-23T21:45:42.551Z,22.15
2023-01-23T21:48:11.206Z,21.77
2023-01-23T21:50:38.536Z,21.90
2023-01-23T21:53:07.169Z,23.00
2023-01-23T21:55:34.589Z,23.45
2023-01-23T21:58:01.917Z,23.35
2023-01-23T22:00:46.702Z,20.80
2023-01-23T22:03:15.520Z,27.00
2023-01-23T22:05:42.863Z,21.70
2023-01-23T22:08:10.234Z,20.83
2023-01-23T22:10:37.541Z,21.10
2023-01-23T22:13:04.821Z,21.98
2023-01-23T22:15:32.186Z,20.45
2023-01-23T22:17:59.744Z,21.20
2023-01-23T22:20:28.444Z,21.45
2023-01-23T22:22:55.983Z,20.08
2023-01-23T22:25:23.530Z,21.27
2023-01-23T22:27:50.971Z,21.55
2023-01-23T22:30:18.595Z,20.02
2023-01-23T22:32:45.885Z,24.65
2023-01-23T22:35:14.068Z,23.52
2023-01-23T22:37:44.087Z,21.98
2023-01-23T22:40:12.289Z,24.80
2023-01-23T22:42:39.757Z,24.30
2023-01-23T22:45:09.622Z,29.13
2023-01-23T22:47:37.216Z,30.33
2023-01-23T22:50:04.786Z,29.40
2023-01-23T22:52:32.193Z,25.63
2023-01-23T22:55:00.860Z,29.70
2023-01-23T22:57:28.245Z,34.28
2023-01-23T22:59:55.528Z,32.25
2023-01-23T23:02:22.932Z,29.45
2023-01-23T23:04:51.493Z,28.17
2023-01-23T23:07:18.883Z,25.00
2023-01-23T23:09:46.480Z,26.42
2023-01-23T23:12:15.122Z,28.50
2023-01-23T23:14:42.620Z,30.45
2023-01-23T23:17:11.369Z,32.13
2023-01-23T23:19:38.663Z,29.35
2023-01-23T23:22:06.636Z,27.98
2023-01-23T23:24:34.000Z,25.60
2023-01-23T23:27:01.343Z,27.23
2023-01-23T23:29:29.984Z,24.05
2023-01-23T23:31:57.628Z,25.88
2023-01-23T23:34:24.995Z,24.20
2023-01-23T23:36:52.352Z,24.02
2023-01-23T23:39:19.771Z,23.23
2023-01-23T23:41:47.112Z,23.38
2023-01-23T23:44:16.233Z,27.58
2023-01-23T23:46:45.109Z,24.92
2023-01-23T23:49:12.651Z,23.05
2023-01-23T23:51:40.202Z,21.83
2023-01-23T23:54:07.497Z,18.33
2023-01-23T23:56:35.081Z,21.15
2023-01-23T23:59:02.426Z,19.63
